CheckWX is a tool to help pilots better visualize weather data.  It is not intended as a substitute for an official pre-flight weather briefing.

09:30:22 UTC

KLIT METAR
Bill and Hillary Clinton National / Adams Field Airport
Little Rock, Arkansas, USA
Current

37 mins ago

KLIT 210853Z 00000KT 10SM BKN090 23/21 A3011 RMK AO2 SLP197 T02280206 57001
Observed
Sep-21 @ 08:53 UTC
Visibility
10 SM
Flight Rules
VFR
Cloud Levels
  • Broken at 9,000' AGL
Temperature
23°C / 73°F
Dewpoint
21°C / 70°F
Humidity
89%
Altimeter
30.11" Hg
Pressure
1019.62 hPa
Previous

2 hours ago

KLIT 210753Z 13003KT 10SM OVC080 23/21 A3011 RMK AO2 SLP197 T02280206
Observed
Sep-21 @ 07:53 UTC
Wind
  • 130° at 3 KTS
Visibility
10 SM
Flight Rules
VFR
Cloud Levels
  • Overcast at 8,000' AGL
Temperature
23°C / 73°F
Dewpoint
21°C / 70°F
Humidity
89%
Altimeter
30.11" Hg
Pressure
1019.62 hPa
Previous

3 hours ago

KLIT 210653Z 20003KT 10SM FEW100 22/21 A3011 RMK AO2 SLP198 T02220206
Observed
Sep-21 @ 06:53 UTC
Wind
  • 200° at 3 KTS
Visibility
10 SM
Flight Rules
VFR
Cloud Levels
  • Few at 10,000' AGL
Temperature
22°C / 72°F
Dewpoint
21°C / 70°F
Humidity
94%
Altimeter
30.11" Hg
Pressure
1019.62 hPa